Metar z pełnej godziny Komunikat METAR ze strony awiacja.imgw.pl Metar G00 EPGD METAR EPGD 241900Z 12005KT CAVOK 14/10 Q1010 =